Copalis Crossing, Washington
Current Conditions -  °F | °C
As of 3:53 AM on Monday 22 Dec 2014 (Local Time) from KHQM Reporting Station
Haze Haze  
Wind Chill: 50°   Ceiling: 3700
Heat Index: 50°   Visibility: 5mi
Dew Point: 46°   Wind: 6mph
Humidity: 86%   Direction: 280°W
Pressure: 30.24"   Gusts: NA
Location:  47.11°N, 124.07°W
Report Text: KHQM 221153Z AUTO 28005KT 5SM BR BKN037 10/08 A3024 RMK AO2 SLP243 60001 70010 T01000078 10111 20100 53024
Loading
Personal Weather Stations






























Interactive Weather Map New forecast layout! Learn more

10-Day Weather Forecast

Advertisements
Track Severe Weather on mobile